sensor_id;sensor_type;location;lat;lon;timestamp;P1;durP1;ratioP1;P2;durP2;ratioP2
52708;SDS011;38606;52.986;6.980;2023-04-29T00:02:12;61.50;;;35.67;;
52708;SDS011;38606;52.986;6.980;2023-04-29T00:04:38;60.50;;;35.00;;
52708;SDS011;38606;52.986;6.980;2023-04-29T00:07:04;63.00;;;35.97;;
52708;SDS011;38606;52.986;6.980;2023-04-29T00:09:30;59.10;;;35.53;;
52708;SDS011;38606;52.986;6.980;2023-04-29T00:11:55;57.13;;;34.75;;
52708;SDS011;38606;52.986;6.980;2023-04-29T00:14:21;61.58;;;35.20;;
52708;SDS011;38606;52.986;6.980;2023-04-29T00:16:47;65.00;;;36.45;;
52708;SDS011;38606;52.986;6.980;2023-04-29T00:19:12;60.00;;;35.70;;
52708;SDS011;38606;52.986;6.980;2023-04-29T00:21:38;59.97;;;36.70;;
52708;SDS011;38606;52.986;6.980;2023-04-29T00:24:04;66.00;;;37.38;;
52708;SDS011;38606;52.986;6.980;2023-04-29T00:26:30;57.08;;;34.75;;
52708;SDS011;38606;52.986;6.980;2023-04-29T00:28:56;56.28;;;34.35;;
52708;SDS011;38606;52.986;6.980;2023-04-29T00:31:22;59.65;;;35.13;;
52708;SDS011;38606;52.986;6.980;2023-04-29T00:33:47;52.05;;;34.63;;
52708;SDS011;38606;52.986;6.980;2023-04-29T00:36:13;57.70;;;36.22;;
52708;SDS011;38606;52.986;6.980;2023-04-29T00:38:39;65.47;;;36.17;;
52708;SDS011;38606;52.986;6.980;2023-04-29T00:41:05;58.08;;;35.80;;
52708;SDS011;38606;52.986;6.980;2023-04-29T00:43:30;58.00;;;36.33;;
52708;SDS011;38606;52.986;6.980;2023-04-29T00:45:56;62.38;;;35.92;;
52708;SDS011;38606;52.986;6.980;2023-04-29T00:48:22;62.42;;;36.72;;
52708;SDS011;38606;52.986;6.980;2023-04-29T00:50:48;61.85;;;36.30;;
52708;SDS011;38606;52.986;6.980;2023-04-29T00:53:15;59.00;;;35.03;;
52708;SDS011;38606;52.986;6.980;2023-04-29T00:55:42;61.20;;;34.65;;
52708;SDS011;38606;52.986;6.980;2023-04-29T00:58:10;61.70;;;34.90;;
52708;SDS011;38606;52.986;6.980;2023-04-29T01:00:36;62.15;;;35.55;;
52708;SDS011;38606;52.986;6.980;2023-04-29T01:03:03;54.40;;;34.50;;
52708;SDS011;38606;52.986;6.980;2023-04-29T01:05:29;59.15;;;33.90;;
52708;SDS011;38606;52.986;6.980;2023-04-29T01:13:29;60.53;;;34.35;;
52708;SDS011;38606;52.986;6.980;2023-04-29T01:16:07;66.68;;;36.92;;
52708;SDS011;38606;52.986;6.980;2023-04-29T01:18:48;65.68;;;37.45;;
52708;SDS011;38606;52.986;6.980;2023-04-29T01:21:19;60.88;;;36.40;;
52708;SDS011;38606;52.986;6.980;2023-04-29T01:23:45;62.53;;;36.97;;
52708;SDS011;38606;52.986;6.980;2023-04-29T01:26:11;63.63;;;36.63;;
52708;SDS011;38606;52.986;6.980;2023-04-29T01:28:45;64.18;;;36.25;;
52708;SDS011;38606;52.986;6.980;2023-04-29T01:31:50;57.28;;;34.28;;
52708;SDS011;38606;52.986;6.980;2023-04-29T01:34:48;59.65;;;33.70;;
52708;SDS011;38606;52.986;6.980;2023-04-29T01:40:21;51.97;;;31.92;;
52708;SDS011;38606;52.986;6.980;2023-04-29T01:43:03;48.03;;;31.02;;
52708;SDS011;38606;52.986;6.980;2023-04-29T01:45:33;53.83;;;31.02;;
52708;SDS011;38606;52.986;6.980;2023-04-29T01:48:02;48.88;;;28.05;;
52708;SDS011;38606;52.986;6.980;2023-04-29T01:50:29;49.38;;;27.58;;
52708;SDS011;38606;52.986;6.980;2023-04-29T01:52:54;45.33;;;28.00;;
52708;SDS011;38606;52.986;6.980;2023-04-29T01:55:20;49.20;;;26.80;;
52708;SDS011;38606;52.986;6.980;2023-04-29T01:57:46;48.08;;;26.65;;
52708;SDS011;38606;52.986;6.980;2023-04-29T02:00:12;42.75;;;24.98;;
52708;SDS011;38606;52.986;6.980;2023-04-29T02:02:38;49.85;;;26.42;;
52708;SDS011;38606;52.986;6.980;2023-04-29T02:05:03;41.47;;;25.38;;
52708;SDS011;38606;52.986;6.980;2023-04-29T02:07:29;48.45;;;25.98;;
52708;SDS011;38606;52.986;6.980;2023-04-29T02:09:55;43.17;;;25.23;;
52708;SDS011;38606;52.986;6.980;2023-04-29T02:12:21;41.88;;;25.05;;
52708;SDS011;38606;52.986;6.980;2023-04-29T02:14:46;43.33;;;24.98;;
52708;SDS011;38606;52.986;6.980;2023-04-29T02:17:16;43.38;;;24.30;;
52708;SDS011;38606;52.986;6.980;2023-04-29T02:19:42;45.65;;;24.25;;
52708;SDS011;38606;52.986;6.980;2023-04-29T02:22:08;45.97;;;24.80;;
52708;SDS011;38606;52.986;6.980;2023-04-29T02:24:36;39.17;;;22.98;;
52708;SDS011;38606;52.986;6.980;2023-04-29T02:27:03;40.47;;;24.33;;
52708;SDS011;38606;52.986;6.980;2023-04-29T02:29:30;45.65;;;23.83;;
52708;SDS011;38606;52.986;6.980;2023-04-29T02:31:56;51.53;;;25.50;;
52708;SDS011;38606;52.986;6.980;2023-04-29T02:34:22;41.38;;;23.85;;
52708;SDS011;38606;52.986;6.980;2023-04-29T02:36:48;43.70;;;23.75;;
52708;SDS011;38606;52.986;6.980;2023-04-29T02:39:14;45.50;;;25.35;;
52708;SDS011;38606;52.986;6.980;2023-04-29T02:41:41;48.35;;;25.92;;
52708;SDS011;38606;52.986;6.980;2023-04-29T02:44:07;48.28;;;26.50;;
52708;SDS011;38606;52.986;6.980;2023-04-29T02:46:32;49.75;;;26.67;;
52708;SDS011;38606;52.986;6.980;2023-04-29T02:49:00;46.67;;;25.02;;
52708;SDS011;38606;52.986;6.980;2023-04-29T02:51:27;49.05;;;25.40;;
52708;SDS011;38606;52.986;6.980;2023-04-29T02:53:53;47.40;;;24.65;;
52708;SDS011;38606;52.986;6.980;2023-04-29T02:56:19;49.97;;;25.58;;
52708;SDS011;38606;52.986;6.980;2023-04-29T02:58:45;45.88;;;24.35;;
52708;SDS011;38606;52.986;6.980;2023-04-29T03:01:11;50.67;;;26.15;;
52708;SDS011;38606;52.986;6.980;2023-04-29T03:03:37;45.28;;;24.95;;
52708;SDS011;38606;52.986;6.980;2023-04-29T03:06:03;50.33;;;26.05;;
52708;SDS011;38606;52.986;6.980;2023-04-29T03:08:28;46.35;;;26.25;;
52708;SDS011;38606;52.986;6.980;2023-04-29T03:10:54;46.85;;;25.98;;
52708;SDS011;38606;52.986;6.980;2023-04-29T03:13:20;56.45;;;26.15;;
52708;SDS011;38606;52.986;6.980;2023-04-29T03:15:46;46.60;;;24.27;;
52708;SDS011;38606;52.986;6.980;2023-04-29T03:18:12;48.83;;;24.30;;
52708;SDS011;38606;52.986;6.980;2023-04-29T03:20:37;49.63;;;25.42;;
52708;SDS011;38606;52.986;6.980;2023-04-29T03:23:03;50.45;;;25.02;;
52708;SDS011;38606;52.986;6.980;2023-04-29T03:25:29;44.67;;;23.38;;
52708;SDS011;38606;52.986;6.980;2023-04-29T03:27:55;45.10;;;24.10;;
52708;SDS011;38606;52.986;6.980;2023-04-29T03:30:21;49.63;;;23.38;;
52708;SDS011;38606;52.986;6.980;2023-04-29T03:32:47;54.55;;;23.75;;
52708;SDS011;38606;52.986;6.980;2023-04-29T03:35:13;51.75;;;22.42;;
52708;SDS011;38606;52.986;6.980;2023-04-29T03:37:38;42.05;;;20.80;;
52708;SDS011;38606;52.986;6.980;2023-04-29T03:40:05;45.05;;;21.90;;
52708;SDS011;38606;52.986;6.980;2023-04-29T03:42:31;35.03;;;19.83;;
52708;SDS011;38606;52.986;6.980;2023-04-29T03:44:57;36.60;;;20.88;;
52708;SDS011;38606;52.986;6.980;2023-04-29T03:47:23;44.10;;;21.27;;
52708;SDS011;38606;52.986;6.980;2023-04-29T03:49:48;34.97;;;20.13;;
52708;SDS011;38606;52.986;6.980;2023-04-29T03:52:14;41.50;;;21.23;;
52708;SDS011;38606;52.986;6.980;2023-04-29T03:54:40;37.80;;;20.08;;
52708;SDS011;38606;52.986;6.980;2023-04-29T03:57:06;39.85;;;20.05;;
52708;SDS011;38606;52.986;6.980;2023-04-29T03:59:32;46.35;;;21.52;;
52708;SDS011;38606;52.986;6.980;2023-04-29T04:01:57;41.50;;;20.65;;
52708;SDS011;38606;52.986;6.980;2023-04-29T04:04:23;36.60;;;19.65;;
52708;SDS011;38606;52.986;6.980;2023-04-29T04:06:49;37.08;;;20.33;;
52708;SDS011;38606;52.986;6.980;2023-04-29T04:09:16;38.03;;;19.17;;
52708;SDS011;38606;52.986;6.980;2023-04-29T04:11:42;35.42;;;19.33;;
52708;SDS011;38606;52.986;6.980;2023-04-29T04:14:09;41.83;;;20.75;;
52708;SDS011;38606;52.986;6.980;2023-04-29T04:16:34;43.38;;;21.83;;
52708;SDS011;38606;52.986;6.980;2023-04-29T04:19:00;39.05;;;21.15;;
52708;SDS011;38606;52.986;6.980;2023-04-29T04:21:27;41.45;;;20.27;;
52708;SDS011;38606;52.986;6.980;2023-04-29T04:23:54;38.63;;;19.80;;
52708;SDS011;38606;52.986;6.980;2023-04-29T04:26:20;41.40;;;21.23;;
52708;SDS011;38606;52.986;6.980;2023-04-29T04:28:47;43.28;;;20.10;;
52708;SDS011;38606;52.986;6.980;2023-04-29T04:31:13;39.83;;;20.80;;
52708;SDS011;38606;52.986;6.980;2023-04-29T04:33:39;39.33;;;20.80;;
52708;SDS011;38606;52.986;6.980;2023-04-29T04:36:06;41.25;;;20.38;;
52708;SDS011;38606;52.986;6.980;2023-04-29T04:38:32;34.92;;;19.83;;
52708;SDS011;38606;52.986;6.980;2023-04-29T04:40:58;35.35;;;19.67;;
52708;SDS011;38606;52.986;6.980;2023-04-29T04:43:24;37.92;;;18.25;;
52708;SDS011;38606;52.986;6.980;2023-04-29T04:45:50;32.97;;;18.02;;
52708;SDS011;38606;52.986;6.980;2023-04-29T04:48:16;34.20;;;17.63;;
52708;SDS011;38606;52.986;6.980;2023-04-29T04:50:41;38.47;;;17.98;;
52708;SDS011;38606;52.986;6.980;2023-04-29T04:53:07;40.13;;;19.63;;
52708;SDS011;38606;52.986;6.980;2023-04-29T04:55:33;38.00;;;19.48;;
52708;SDS011;38606;52.986;6.980;2023-04-29T04:57:59;32.47;;;18.20;;
52708;SDS011;38606;52.986;6.980;2023-04-29T05:00:25;38.45;;;19.15;;
52708;SDS011;38606;52.986;6.980;2023-04-29T05:02:50;32.72;;;18.70;;
52708;SDS011;38606;52.986;6.980;2023-04-29T05:05:16;35.65;;;18.50;;
52708;SDS011;38606;52.986;6.980;2023-04-29T05:07:42;34.05;;;19.05;;
52708;SDS011;38606;52.986;6.980;2023-04-29T05:10:08;32.70;;;19.40;;
52708;SDS011;38606;52.986;6.980;2023-04-29T05:12:34;38.45;;;19.48;;
52708;SDS011;38606;52.986;6.980;2023-04-29T05:15:00;35.95;;;19.30;;
52708;SDS011;38606;52.986;6.980;2023-04-29T05:17:27;33.70;;;19.85;;
52708;SDS011;38606;52.986;6.980;2023-04-29T05:19:52;31.42;;;18.83;;
52708;SDS011;38606;52.986;6.980;2023-04-29T05:22:18;31.42;;;18.83;;
52708;SDS011;38606;52.986;6.980;2023-04-29T05:24:44;36.28;;;19.55;;
52708;SDS011;38606;52.986;6.980;2023-04-29T05:27:12;33.72;;;18.48;;
52708;SDS011;38606;52.986;6.980;2023-04-29T05:29:39;38.28;;;18.63;;
52708;SDS011;38606;52.986;6.980;2023-04-29T05:32:05;32.72;;;16.73;;
52708;SDS011;38606;52.986;6.980;2023-04-29T05:34:30;39.20;;;18.63;;
52708;SDS011;38606;52.986;6.980;2023-04-29T05:36:56;29.98;;;17.23;;
52708;SDS011;38606;52.986;6.980;2023-04-29T05:39:22;31.45;;;17.35;;
52708;SDS011;38606;52.986;6.980;2023-04-29T05:41:48;29.30;;;16.35;;
52708;SDS011;38606;52.986;6.980;2023-04-29T05:44:14;33.28;;;17.10;;
52708;SDS011;38606;52.986;6.980;2023-04-29T05:46:39;33.92;;;16.20;;
52708;SDS011;38606;52.986;6.980;2023-04-29T05:49:05;31.00;;;17.40;;
52708;SDS011;38606;52.986;6.980;2023-04-29T05:51:31;34.30;;;16.27;;
52708;SDS011;38606;52.986;6.980;2023-04-29T05:53:57;33.97;;;18.13;;
52708;SDS011;38606;52.986;6.980;2023-04-29T05:56:24;36.15;;;17.80;;
52708;SDS011;38606;52.986;6.980;2023-04-29T05:58:50;37.78;;;19.40;;
52708;SDS011;38606;52.986;6.980;2023-04-29T06:01:16;31.70;;;18.15;;
52708;SDS011;38606;52.986;6.980;2023-04-29T06:03:42;31.67;;;17.92;;
52708;SDS011;38606;52.986;6.980;2023-04-29T06:06:08;37.10;;;18.77;;
52708;SDS011;38606;52.986;6.980;2023-04-29T06:08:34;31.42;;;18.23;;
52708;SDS011;38606;52.986;6.980;2023-04-29T06:11:00;33.20;;;17.98;;
52708;SDS011;38606;52.986;6.980;2023-04-29T06:13:27;30.42;;;17.60;;
52708;SDS011;38606;52.986;6.980;2023-04-29T06:15:54;33.35;;;19.00;;
52708;SDS011;38606;52.986;6.980;2023-04-29T06:18:20;31.42;;;18.23;;
52708;SDS011;38606;52.986;6.980;2023-04-29T06:20:45;35.35;;;17.23;;
52708;SDS011;38606;52.986;6.980;2023-04-29T06:23:11;35.83;;;18.90;;
52708;SDS011;38606;52.986;6.980;2023-04-29T06:25:37;31.23;;;18.58;;
52708;SDS011;38606;52.986;6.980;2023-04-29T06:28:03;31.20;;;18.15;;
52708;SDS011;38606;52.986;6.980;2023-04-29T06:30:29;30.13;;;17.67;;
52708;SDS011;38606;52.986;6.980;2023-04-29T06:32:55;30.63;;;18.05;;
52708;SDS011;38606;52.986;6.980;2023-04-29T06:35:21;31.88;;;16.88;;
52708;SDS011;38606;52.986;6.980;2023-04-29T06:37:47;31.30;;;17.55;;
52708;SDS011;38606;52.986;6.980;2023-04-29T06:40:12;33.50;;;18.70;;
52708;SDS011;38606;52.986;6.980;2023-04-29T06:42:38;32.85;;;17.27;;
52708;SDS011;38606;52.986;6.980;2023-04-29T06:45:04;26.27;;;15.85;;
52708;SDS011;38606;52.986;6.980;2023-04-29T06:47:31;28.02;;;16.20;;
52708;SDS011;38606;52.986;6.980;2023-04-29T06:49:57;27.73;;;17.08;;
52708;SDS011;38606;52.986;6.980;2023-04-29T06:52:23;29.17;;;15.63;;
52708;SDS011;38606;52.986;6.980;2023-04-29T06:54:48;28.00;;;15.82;;
52708;SDS011;38606;52.986;6.980;2023-04-29T06:57:14;31.90;;;15.25;;
52708;SDS011;38606;52.986;6.980;2023-04-29T06:59:40;26.77;;;14.70;;
52708;SDS011;38606;52.986;6.980;2023-04-29T07:02:05;24.70;;;14.70;;
52708;SDS011;38606;52.986;6.980;2023-04-29T07:04:31;22.33;;;12.25;;
52708;SDS011;38606;52.986;6.980;2023-04-29T07:06:57;22.20;;;13.48;;
52708;SDS011;38606;52.986;6.980;2023-04-29T07:09:23;19.70;;;12.45;;
52708;SDS011;38606;52.986;6.980;2023-04-29T07:11:51;20.90;;;11.95;;
52708;SDS011;38606;52.986;6.980;2023-04-29T07:14:18;19.02;;;11.77;;
52708;SDS011;38606;52.986;6.980;2023-04-29T07:16:46;20.67;;;11.05;;
52708;SDS011;38606;52.986;6.980;2023-04-29T07:19:12;22.88;;;11.90;;
52708;SDS011;38606;52.986;6.980;2023-04-29T07:21:38;23.42;;;11.63;;
52708;SDS011;38606;52.986;6.980;2023-04-29T07:24:04;17.15;;;11.70;;
52708;SDS011;38606;52.986;6.980;2023-04-29T07:26:30;16.67;;;10.07;;
52708;SDS011;38606;52.986;6.980;2023-04-29T07:28:55;16.65;;;10.55;;
52708;SDS011;38606;52.986;6.980;2023-04-29T07:31:21;18.55;;;10.75;;
52708;SDS011;38606;52.986;6.980;2023-04-29T07:33:47;17.33;;;9.27;;
52708;SDS011;38606;52.986;6.980;2023-04-29T07:36:13;17.92;;;10.50;;
52708;SDS011;38606;52.986;6.980;2023-04-29T07:38:39;16.10;;;9.43;;
52708;SDS011;38606;52.986;6.980;2023-04-29T07:41:05;16.02;;;8.98;;
52708;SDS011;38606;52.986;6.980;2023-04-29T07:43:30;13.55;;;8.38;;
52708;SDS011;38606;52.986;6.980;2023-04-29T07:45:56;15.65;;;9.10;;
52708;SDS011;38606;52.986;6.980;2023-04-29T07:48:22;16.98;;;9.65;;
52708;SDS011;38606;52.986;6.980;2023-04-29T07:50:48;15.88;;;8.35;;
52708;SDS011;38606;52.986;6.980;2023-04-29T07:53:13;15.98;;;8.38;;
52708;SDS011;38606;52.986;6.980;2023-04-29T07:55:40;25.85;;;8.45;;
52708;SDS011;38606;52.986;6.980;2023-04-29T07:58:06;14.23;;;7.72;;
52708;SDS011;38606;52.986;6.980;2023-04-29T08:00:32;11.93;;;7.85;;
52708;SDS011;38606;52.986;6.980;2023-04-29T08:02:58;14.27;;;8.02;;
52708;SDS011;38606;52.986;6.980;2023-04-29T08:05:24;30.08;;;9.48;;
52708;SDS011;38606;52.986;6.980;2023-04-29T08:07:50;26.77;;;8.10;;
52708;SDS011;38606;52.986;6.980;2023-04-29T08:10:16;17.45;;;7.88;;
52708;SDS011;38606;52.986;6.980;2023-04-29T08:12:49;14.60;;;7.47;;
52708;SDS011;38606;52.986;6.980;2023-04-29T08:15:15;13.68;;;7.53;;
52708;SDS011;38606;52.986;6.980;2023-04-29T08:17:42;13.70;;;8.15;;
52708;SDS011;38606;52.986;6.980;2023-04-29T08:20:08;14.00;;;8.30;;
52708;SDS011;38606;52.986;6.980;2023-04-29T08:22:35;13.70;;;7.68;;
52708;SDS011;38606;52.986;6.980;2023-04-29T08:25:02;12.55;;;7.95;;
52708;SDS011;38606;52.986;6.980;2023-04-29T08:27:29;13.48;;;8.25;;
52708;SDS011;38606;52.986;6.980;2023-04-29T08:29:55;15.85;;;8.40;;
52708;SDS011;38606;52.986;6.980;2023-04-29T08:32:21;27.42;;;8.80;;
52708;SDS011;38606;52.986;6.980;2023-04-29T08:34:47;26.92;;;9.00;;
52708;SDS011;38606;52.986;6.980;2023-04-29T08:37:13;12.65;;;7.45;;
52708;SDS011;38606;52.986;6.980;2023-04-29T08:39:40;23.13;;;7.80;;
52708;SDS011;38606;52.986;6.980;2023-04-29T08:42:10;14.10;;;7.30;;
52708;SDS011;38606;52.986;6.980;2023-04-29T08:44:37;18.65;;;8.20;;
52708;SDS011;38606;52.986;6.980;2023-04-29T08:47:04;12.27;;;7.32;;
52708;SDS011;38606;52.986;6.980;2023-04-29T08:49:31;12.77;;;7.13;;
52708;SDS011;38606;52.986;6.980;2023-04-29T08:51:58;21.23;;;7.88;;
52708;SDS011;38606;52.986;6.980;2023-04-29T08:54:24;12.68;;;7.18;;
52708;SDS011;38606;52.986;6.980;2023-04-29T08:56:52;14.95;;;6.88;;
52708;SDS011;38606;52.986;6.980;2023-04-29T08:59:22;10.60;;;6.35;;
52708;SDS011;38606;52.986;6.980;2023-04-29T09:01:49;9.98;;;6.45;;
52708;SDS011;38606;52.986;6.980;2023-04-29T09:04:29;10.32;;;6.47;;
52708;SDS011;38606;52.986;6.980;2023-04-29T09:07:04;10.80;;;6.50;;
52708;SDS011;38606;52.986;6.980;2023-04-29T09:09:31;11.20;;;5.97;;
52708;SDS011;38606;52.986;6.980;2023-04-29T09:11:57;10.07;;;6.30;;
52708;SDS011;38606;52.986;6.980;2023-04-29T09:14:23;12.07;;;6.45;;
52708;SDS011;38606;52.986;6.980;2023-04-29T09:16:49;11.32;;;6.40;;
52708;SDS011;38606;52.986;6.980;2023-04-29T09:19:32;13.32;;;6.63;;
52708;SDS011;38606;52.986;6.980;2023-04-29T09:21:59;10.88;;;6.60;;
52708;SDS011;38606;52.986;6.980;2023-04-29T09:24:27;13.02;;;7.13;;
52708;SDS011;38606;52.986;6.980;2023-04-29T09:26:54;13.70;;;6.90;;
52708;SDS011;38606;52.986;6.980;2023-04-29T09:29:20;8.27;;;6.40;;
52708;SDS011;38606;52.986;6.980;2023-04-29T09:31:48;12.80;;;6.38;;
52708;SDS011;38606;52.986;6.980;2023-04-29T09:34:14;11.35;;;6.13;;
52708;SDS011;38606;52.986;6.980;2023-04-29T09:39:10;9.73;;;6.30;;
52708;SDS011;38606;52.986;6.980;2023-04-29T09:41:41;10.13;;;6.13;;
52708;SDS011;38606;52.986;6.980;2023-04-29T09:44:08;11.75;;;6.10;;
52708;SDS011;38606;52.986;6.980;2023-04-29T09:46:35;9.40;;;6.38;;
52708;SDS011;38606;52.986;6.980;2023-04-29T09:49:02;8.80;;;6.55;;
52708;SDS011;38606;52.986;6.980;2023-04-29T09:51:31;12.18;;;6.63;;
52708;SDS011;38606;52.986;6.980;2023-04-29T09:53:58;11.93;;;6.63;;
52708;SDS011;38606;52.986;6.980;2023-04-29T09:56:25;10.68;;;6.53;;
52708;SDS011;38606;52.986;6.980;2023-04-29T09:58:54;10.52;;;6.60;;
52708;SDS011;38606;52.986;6.980;2023-04-29T10:01:21;11.13;;;6.70;;
52708;SDS011;38606;52.986;6.980;2023-04-29T10:03:47;13.45;;;7.15;;
52708;SDS011;38606;52.986;6.980;2023-04-29T10:06:16;11.68;;;7.40;;
52708;SDS011;38606;52.986;6.980;2023-04-29T10:08:43;11.43;;;6.47;;
52708;SDS011;38606;52.986;6.980;2023-04-29T10:11:12;12.38;;;7.28;;
52708;SDS011;38606;52.986;6.980;2023-04-29T10:13:41;9.35;;;6.25;;
52708;SDS011;38606;52.986;6.980;2023-04-29T10:16:18;7.63;;;5.60;;
52708;SDS011;38606;52.986;6.980;2023-04-29T10:18:52;13.63;;;6.13;;
52708;SDS011;38606;52.986;6.980;2023-04-29T10:21:29;8.95;;;6.88;;
52708;SDS011;38606;52.986;6.980;2023-04-29T10:23:56;13.45;;;6.65;;
52708;SDS011;38606;52.986;6.980;2023-04-29T10:26:25;10.27;;;5.93;;
52708;SDS011;38606;52.986;6.980;2023-04-29T10:28:54;10.07;;;6.43;;
52708;SDS011;38606;52.986;6.980;2023-04-29T10:31:20;39.35;;;8.98;;
52708;SDS011;38606;52.986;6.980;2023-04-29T10:33:46;10.00;;;5.53;;
52708;SDS011;38606;52.986;6.980;2023-04-29T10:36:13;10.40;;;5.50;;
52708;SDS011;38606;52.986;6.980;2023-04-29T10:38:41;11.27;;;5.40;;
52708;SDS011;38606;52.986;6.980;2023-04-29T10:43:52;10.07;;;5.03;;
52708;SDS011;38606;52.986;6.980;2023-04-29T10:46:23;8.63;;;4.47;;
52708;SDS011;38606;52.986;6.980;2023-04-29T10:48:57;13.60;;;4.57;;
52708;SDS011;38606;52.986;6.980;2023-04-29T10:54:00;6.30;;;4.20;;
52708;SDS011;38606;52.986;6.980;2023-04-29T10:56:34;9.18;;;4.05;;
52708;SDS011;38606;52.986;6.980;2023-04-29T10:59:04;9.88;;;4.80;;
52708;SDS011;38606;52.986;6.980;2023-04-29T11:04:25;9.43;;;4.63;;
52708;SDS011;38606;52.986;6.980;2023-04-29T11:06:52;7.65;;;4.68;;
52708;SDS011;38606;52.986;6.980;2023-04-29T11:12:06;7.70;;;4.40;;
52708;SDS011;38606;52.986;6.980;2023-04-29T11:14:39;7.38;;;4.55;;
52708;SDS011;38606;52.986;6.980;2023-04-29T11:17:08;6.88;;;4.65;;
52708;SDS011;38606;52.986;6.980;2023-04-29T11:19:42;7.35;;;4.32;;
52708;SDS011;38606;52.986;6.980;2023-04-29T11:24:52;8.27;;;4.57;;
52708;SDS011;38606;52.986;6.980;2023-04-29T11:27:21;8.73;;;5.10;;
52708;SDS011;38606;52.986;6.980;2023-04-29T11:29:50;9.45;;;5.10;;
52708;SDS011;38606;52.986;6.980;2023-04-29T11:32:22;10.40;;;4.78;;
52708;SDS011;38606;52.986;6.980;2023-04-29T11:34:50;8.18;;;5.18;;
52708;SDS011;38606;52.986;6.980;2023-04-29T11:37:20;9.23;;;4.57;;
52708;SDS011;38606;52.986;6.980;2023-04-29T11:39:48;8.07;;;4.47;;
52708;SDS011;38606;52.986;6.980;2023-04-29T11:42:18;7.22;;;4.53;;
52708;SDS011;38606;52.986;6.980;2023-04-29T11:44:45;12.77;;;4.85;;
52708;SDS011;38606;52.986;6.980;2023-04-29T11:47:10;7.47;;;4.47;;
52708;SDS011;38606;52.986;6.980;2023-04-29T11:49:36;10.52;;;4.78;;
52708;SDS011;38606;52.986;6.980;2023-04-29T11:52:02;11.27;;;4.65;;
52708;SDS011;38606;52.986;6.980;2023-04-29T11:54:28;11.07;;;4.85;;
52708;SDS011;38606;52.986;6.980;2023-04-29T11:56:55;7.32;;;4.55;;
52708;SDS011;38606;52.986;6.980;2023-04-29T11:59:22;9.63;;;4.53;;
52708;SDS011;38606;52.986;6.980;2023-04-29T12:01:49;8.20;;;4.18;;
52708;SDS011;38606;52.986;6.980;2023-04-29T12:04:15;11.63;;;4.47;;
52708;SDS011;38606;52.986;6.980;2023-04-29T12:06:42;10.40;;;4.45;;
52708;SDS011;38606;52.986;6.980;2023-04-29T12:09:08;7.68;;;4.50;;
52708;SDS011;38606;52.986;6.980;2023-04-29T12:11:34;6.68;;;4.20;;
52708;SDS011;38606;52.986;6.980;2023-04-29T12:14:01;6.53;;;4.07;;
52708;SDS011;38606;52.986;6.980;2023-04-29T12:16:30;6.72;;;4.32;;
52708;SDS011;38606;52.986;6.980;2023-04-29T12:18:57;6.35;;;4.20;;
52708;SDS011;38606;52.986;6.980;2023-04-29T12:21:24;6.13;;;3.90;;
52708;SDS011;38606;52.986;6.980;2023-04-29T12:23:51;7.20;;;4.13;;
52708;SDS011;38606;52.986;6.980;2023-04-29T12:26:17;3.78;;;3.13;;
52708;SDS011;38606;52.986;6.980;2023-04-29T12:28:45;5.22;;;3.50;;
52708;SDS011;38606;52.986;6.980;2023-04-29T12:31:13;4.95;;;2.70;;
52708;SDS011;38606;52.986;6.980;2023-04-29T12:33:43;6.25;;;2.20;;
52708;SDS011;38606;52.986;6.980;2023-04-29T12:36:16;5.57;;;2.10;;
52708;SDS011;38606;52.986;6.980;2023-04-29T12:38:42;5.30;;;2.53;;
52708;SDS011;38606;52.986;6.980;2023-04-29T12:41:08;5.22;;;2.80;;
52708;SDS011;38606;52.986;6.980;2023-04-29T12:43:35;3.40;;;2.40;;
52708;SDS011;38606;52.986;6.980;2023-04-29T12:48:35;5.63;;;2.47;;
52708;SDS011;38606;52.986;6.980;2023-04-29T12:51:10;4.35;;;2.55;;
52708;SDS011;38606;52.986;6.980;2023-04-29T12:53:37;4.70;;;2.60;;
52708;SDS011;38606;52.986;6.980;2023-04-29T12:56:03;5.63;;;2.17;;
52708;SDS011;38606;52.986;6.980;2023-04-29T12:58:30;3.92;;;2.58;;
52708;SDS011;38606;52.986;6.980;2023-04-29T13:00:57;6.55;;;2.83;;
52708;SDS011;38606;52.986;6.980;2023-04-29T13:03:23;3.38;;;2.35;;
52708;SDS011;38606;52.986;6.980;2023-04-29T13:05:49;5.25;;;2.30;;
52708;SDS011;38606;52.986;6.980;2023-04-29T13:08:17;6.85;;;2.42;;
52708;SDS011;38606;52.986;6.980;2023-04-29T13:10:43;6.18;;;2.20;;
52708;SDS011;38606;52.986;6.980;2023-04-29T13:13:09;4.65;;;2.30;;
52708;SDS011;38606;52.986;6.980;2023-04-29T13:15:36;5.55;;;2.90;;
52708;SDS011;38606;52.986;6.980;2023-04-29T13:18:03;5.55;;;2.30;;
52708;SDS011;38606;52.986;6.980;2023-04-29T13:20:29;6.47;;;2.80;;
52708;SDS011;38606;52.986;6.980;2023-04-29T13:22:57;6.38;;;2.75;;
52708;SDS011;38606;52.986;6.980;2023-04-29T13:25:22;4.78;;;2.72;;
52708;SDS011;38606;52.986;6.980;2023-04-29T13:27:48;4.78;;;2.95;;
52708;SDS011;38606;52.986;6.980;2023-04-29T13:30:14;4.88;;;2.58;;
52708;SDS011;38606;52.986;6.980;2023-04-29T13:32:40;8.38;;;2.65;;
52708;SDS011;38606;52.986;6.980;2023-04-29T13:35:06;5.82;;;3.10;;
52708;SDS011;38606;52.986;6.980;2023-04-29T13:37:33;6.28;;;3.30;;
52708;SDS011;38606;52.986;6.980;2023-04-29T13:39:58;6.22;;;3.05;;
52708;SDS011;38606;52.986;6.980;2023-04-29T13:42:24;6.28;;;3.25;;
52708;SDS011;38606;52.986;6.980;2023-04-29T13:44:53;3.78;;;2.65;;
52708;SDS011;38606;52.986;6.980;2023-04-29T13:47:21;5.50;;;2.70;;
52708;SDS011;38606;52.986;6.980;2023-04-29T13:49:48;8.65;;;3.22;;
52708;SDS011;38606;52.986;6.980;2023-04-29T13:52:14;6.63;;;2.80;;
52708;SDS011;38606;52.986;6.980;2023-04-29T13:54:40;4.45;;;2.47;;
52708;SDS011;38606;52.986;6.980;2023-04-29T13:57:05;5.47;;;1.95;;
52708;SDS011;38606;52.986;6.980;2023-04-29T13:59:31;2.63;;;1.75;;
52708;SDS011;38606;52.986;6.980;2023-04-29T14:01:58;4.40;;;1.90;;
52708;SDS011;38606;52.986;6.980;2023-04-29T14:04:25;4.05;;;2.00;;
52708;SDS011;38606;52.986;6.980;2023-04-29T14:06:52;4.63;;;1.98;;
52708;SDS011;38606;52.986;6.980;2023-04-29T14:09:22;4.93;;;2.15;;
52708;SDS011;38606;52.986;6.980;2023-04-29T14:11:48;4.13;;;2.17;;
52708;SDS011;38606;52.986;6.980;2023-04-29T14:14:15;5.18;;;2.20;;
52708;SDS011;38606;52.986;6.980;2023-04-29T14:16:41;3.10;;;1.80;;
52708;SDS011;38606;52.986;6.980;2023-04-29T14:19:07;3.58;;;1.98;;
52708;SDS011;38606;52.986;6.980;2023-04-29T14:21:33;3.83;;;1.70;;
52708;SDS011;38606;52.986;6.980;2023-04-29T14:23:59;3.53;;;2.30;;
52708;SDS011;38606;52.986;6.980;2023-04-29T14:26:29;4.78;;;2.15;;
52708;SDS011;38606;52.986;6.980;2023-04-29T14:28:55;5.45;;;2.50;;
52708;SDS011;38606;52.986;6.980;2023-04-29T14:31:25;5.68;;;2.90;;
52708;SDS011;38606;52.986;6.980;2023-04-29T14:33:53;6.95;;;3.65;;
52708;SDS011;38606;52.986;6.980;2023-04-29T14:36:19;5.40;;;3.08;;
52708;SDS011;38606;52.986;6.980;2023-04-29T14:38:45;5.30;;;4.00;;
52708;SDS011;38606;52.986;6.980;2023-04-29T14:41:11;5.50;;;4.20;;
52708;SDS011;38606;52.986;6.980;2023-04-29T14:43:37;7.28;;;4.82;;
52708;SDS011;38606;52.986;6.980;2023-04-29T14:46:03;7.45;;;4.68;;
52708;SDS011;38606;52.986;6.980;2023-04-29T14:48:30;7.32;;;4.70;;
52708;SDS011;38606;52.986;6.980;2023-04-29T14:50:56;8.70;;;5.18;;
52708;SDS011;38606;52.986;6.980;2023-04-29T14:53:21;7.30;;;4.43;;
52708;SDS011;38606;52.986;6.980;2023-04-29T14:55:50;8.77;;;4.90;;
52708;SDS011;38606;52.986;6.980;2023-04-29T14:58:16;9.25;;;4.70;;